createdAt,value
2023-05-14T00:00:50.428Z,33.85
2023-05-14T00:03:14.976Z,34.08
2023-05-14T00:04:24.710Z,34.62
2023-05-14T00:06:50.451Z,35.49
2023-05-14T00:09:15.661Z,35.12
2023-05-14T00:11:43.930Z,34.44
2023-05-14T00:14:07.902Z,34.17
2023-05-14T00:16:53.157Z,34.34
2023-05-14T00:19:18.565Z,35.11
2023-05-14T00:21:45.226Z,35.45
2023-05-14T00:24:11.462Z,35.72
2023-05-14T00:26:36.553Z,35.44
2023-05-14T00:29:03.717Z,35.26
2023-05-14T00:31:28.143Z,35.81
2023-05-14T00:32:38.333Z,35.92
2023-05-14T00:33:48.583Z,36.56
2023-05-14T00:34:58.916Z,36.44
2023-05-14T00:37:24.525Z,35.55
2023-05-14T00:39:50.472Z,35.40
2023-05-14T00:42:15.836Z,35.12
2023-05-14T00:44:41.037Z,35.48
2023-05-14T00:47:08.718Z,35.72
2023-05-14T00:48:18.381Z,35.18
2023-05-14T00:50:43.441Z,34.73
2023-05-14T00:51:54.817Z,34.73
2023-05-14T00:54:24.159Z,34.80
2023-05-14T00:56:51.102Z,35.06
2023-05-14T00:59:16.710Z,35.37
2023-05-14T01:01:43.615Z,35.58
2023-05-14T01:02:52.636Z,35.67
2023-05-14T01:05:17.755Z,35.96
2023-05-14T01:07:55.483Z,36.21
2023-05-14T01:10:39.413Z,36.07
2023-05-14T01:13:29.985Z,35.50
2023-05-14T01:16:26.974Z,34.07
2023-05-14T01:18:57.635Z,32.77
2023-05-14T01:20:08.187Z,32.72
2023-05-14T01:22:44.929Z,32.37
2023-05-14T01:25:10.371Z,31.27
2023-05-14T01:27:58.022Z,31.69
2023-05-14T01:31:10.131Z,33.23
2023-05-14T01:32:23.419Z,33.30
2023-05-14T01:34:52.734Z,33.47
2023-05-14T01:37:19.775Z,33.65
2023-05-14T01:39:48.931Z,34.07
2023-05-14T01:41:10.142Z,34.30
2023-05-14T01:43:34.685Z,33.00
2023-05-14T01:44:44.076Z,30.87
2023-05-14T01:45:55.435Z,30.83
2023-05-14T01:48:21.366Z,29.85
2023-05-14T01:50:45.003Z,29.54
2023-05-14T01:53:10.983Z,28.97
2023-05-14T01:55:37.151Z,27.84
2023-05-14T01:58:01.702Z,27.81
2023-05-14T02:00:26.884Z,27.82
2023-05-14T02:02:51.463Z,28.10
2023-05-14T02:05:17.691Z,28.33
2023-05-14T02:07:41.234Z,27.92
2023-05-14T02:10:09.254Z,28.06
2023-05-14T02:12:33.385Z,27.49
2023-05-14T02:14:57.805Z,27.60
2023-05-14T02:17:26.017Z,28.18
2023-05-14T02:19:50.816Z,28.48
2023-05-14T02:21:00.957Z,28.60
2023-05-14T02:22:09.839Z,28.81
2023-05-14T02:24:33.513Z,29.41
2023-05-14T02:25:43.043Z,29.88
2023-05-14T02:28:08.954Z,30.98
2023-05-14T02:30:38.868Z,31.65
2023-05-14T02:33:11.676Z,31.82
2023-05-14T02:35:37.427Z,32.26
2023-05-14T02:38:02.655Z,32.06
2023-05-14T02:40:27.119Z,31.69
2023-05-14T02:42:51.986Z,31.04
2023-05-14T02:45:18.238Z,31.01
2023-05-14T02:46:28.316Z,30.84
2023-05-14T02:48:52.990Z,30.42
2023-05-14T02:51:21.919Z,30.84
2023-05-14T02:53:46.961Z,31.12
2023-05-14T02:56:10.934Z,31.35
2023-05-14T02:57:21.839Z,31.31
2023-05-14T02:58:31.198Z,31.57
2023-05-14T03:00:58.054Z,31.79
2023-05-14T03:02:08.020Z,31.72
2023-05-14T03:04:34.775Z,31.66
2023-05-14T03:07:03.361Z,31.63
2023-05-14T03:08:13.091Z,31.57
2023-05-14T03:09:22.927Z,31.46
2023-05-14T03:10:33.377Z,31.62
2023-05-14T03:11:42.507Z,31.61
2023-05-14T03:14:08.290Z,31.48
2023-05-14T03:16:33.646Z,31.48
2023-05-14T03:17:43.276Z,31.42
2023-05-14T03:20:10.106Z,31.49
2023-05-14T03:21:20.033Z,31.43
2023-05-14T03:22:30.354Z,31.32
2023-05-14T03:24:55.808Z,31.04
2023-05-14T03:27:22.222Z,30.94
2023-05-14T03:28:31.828Z,31.00
2023-05-14T03:30:59.348Z,30.09
2023-05-14T03:32:08.338Z,29.76
2023-05-14T03:34:35.782Z,27.94
2023-05-14T03:35:46.047Z,26.83
2023-05-14T03:38:11.371Z,26.31
2023-05-14T03:40:36.504Z,25.69
2023-05-14T03:43:02.360Z,25.77
2023-05-14T03:45:28.223Z,25.56
2023-05-14T03:47:53.591Z,25.50
2023-05-14T03:50:19.086Z,25.32
2023-05-14T03:51:29.084Z,25.54
2023-05-14T03:53:55.136Z,25.40
2023-05-14T03:56:22.008Z,25.37
2023-05-14T03:58:45.784Z,25.44
2023-05-14T04:01:09.910Z,25.65
2023-05-14T04:03:35.321Z,25.87
2023-05-14T04:04:44.395Z,26.03
2023-05-14T04:07:12.491Z,26.31
2023-05-14T04:08:21.538Z,26.46
2023-05-14T04:10:46.788Z,26.47
2023-05-14T04:13:31.424Z,26.41
2023-05-14T04:14:41.635Z,26.65
2023-05-14T04:15:51.346Z,26.72
2023-05-14T04:17:01.344Z,26.68
2023-05-14T04:18:09.981Z,26.33
2023-05-14T04:19:19.717Z,26.45
2023-05-14T04:20:29.383Z,26.44
2023-05-14T04:23:01.523Z,25.86
2023-05-14T04:25:26.752Z,25.16
2023-05-14T04:26:37.101Z,25.38
2023-05-14T04:27:46.766Z,25.22
2023-05-14T04:30:13.520Z,24.21
2023-05-14T04:32:39.384Z,23.99
2023-05-14T04:35:04.181Z,24.40
2023-05-14T04:37:29.187Z,23.90
2023-05-14T04:39:54.336Z,23.74
2023-05-14T05:41:10.917Z,22.35
2023-05-14T05:43:35.171Z,22.48
2023-05-14T05:44:44.793Z,22.59
2023-05-14T05:47:11.114Z,22.69
2023-05-14T05:49:37.115Z,22.62
2023-05-14T05:52:05.154Z,22.62
2023-05-14T05:54:34.618Z,22.50
2023-05-14T05:55:44.959Z,22.26
2023-05-14T05:58:10.223Z,22.43
2023-05-14T06:00:34.966Z,22.61
2023-05-14T06:02:58.604Z,22.98
2023-05-14T06:04:09.274Z,23.02
2023-05-14T06:05:20.183Z,23.14
2023-05-14T06:07:48.312Z,22.69
2023-05-14T06:08:56.650Z,22.63
2023-05-14T06:11:22.364Z,22.64
2023-05-14T06:13:48.625Z,22.63
2023-05-14T06:16:12.358Z,22.37
2023-05-14T06:18:37.005Z,22.25
2023-05-14T06:19:47.161Z,22.27
2023-05-14T06:22:13.074Z,22.23
2023-05-14T06:23:21.966Z,22.07
2023-05-14T06:25:45.626Z,22.14
2023-05-14T06:26:55.287Z,22.29
2023-05-14T06:29:19.385Z,21.53
2023-05-14T06:31:43.949Z,21.17
2023-05-14T06:32:52.747Z,21.21
2023-05-14T06:35:17.309Z,20.78
2023-05-14T06:36:26.990Z,20.67
2023-05-14T06:37:35.973Z,20.44
2023-05-14T06:40:00.944Z,20.57
2023-05-14T06:42:27.021Z,20.48
2023-05-14T06:44:51.993Z,20.39
2023-05-14T06:46:01.153Z,20.40
2023-05-14T06:47:10.669Z,20.39
2023-05-14T06:49:35.915Z,20.50
2023-05-14T06:52:04.875Z,20.58
2023-05-14T06:54:30.437Z,20.84
2023-05-14T06:56:54.644Z,20.88
2023-05-14T06:59:21.583Z,20.94
2023-05-14T07:01:46.850Z,20.31
2023-05-14T07:02:56.554Z,20.49
2023-05-14T07:05:20.476Z,20.69
2023-05-14T07:07:45.215Z,20.53
2023-05-14T07:10:10.095Z,20.41
2023-05-14T07:11:19.727Z,20.47
2023-05-14T07:13:43.855Z,20.24
2023-05-14T07:14:52.933Z,20.31
2023-05-14T07:17:16.834Z,20.21
2023-05-14T07:19:42.477Z,19.71
2023-05-14T07:22:06.289Z,19.78
2023-05-14T07:24:30.467Z,19.65
2023-05-14T07:26:56.518Z,19.77
2023-05-14T07:28:06.214Z,19.60
2023-05-14T07:29:15.190Z,19.76
2023-05-14T07:30:24.439Z,19.67
2023-05-14T07:31:35.032Z,19.35
2023-05-14T07:33:58.653Z,19.16
2023-05-14T07:36:23.365Z,19.74
2023-05-14T07:38:50.117Z,19.02
2023-05-14T07:41:16.207Z,18.66
2023-05-14T07:43:42.121Z,18.24
2023-05-14T07:46:06.494Z,18.80
2023-05-14T07:48:30.986Z,18.39
2023-05-14T07:50:56.507Z,18.36
2023-05-14T07:53:20.618Z,18.79
2023-05-14T07:55:47.855Z,19.09
2023-05-14T07:58:11.787Z,19.52
2023-05-14T08:00:37.546Z,19.79
2023-05-14T08:03:03.283Z,19.62
2023-05-14T08:05:27.246Z,19.17
2023-05-14T08:06:36.747Z,19.41
2023-05-14T08:07:46.156Z,19.70
2023-05-14T08:08:55.238Z,19.91
2023-05-14T08:10:07.199Z,20.17
2023-05-14T08:11:15.913Z,19.93
2023-05-14T08:13:41.107Z,19.98
2023-05-14T08:16:07.325Z,19.59
2023-05-14T08:18:31.384Z,19.93
2023-05-14T08:19:40.707Z,20.33
2023-05-14T08:22:05.167Z,19.42
2023-05-14T08:24:30.248Z,19.97
2023-05-14T08:25:39.032Z,19.80
2023-05-14T08:28:05.476Z,20.11
2023-05-14T08:29:16.437Z,20.15
2023-05-14T08:30:27.259Z,20.21
2023-05-14T08:32:52.234Z,19.99
2023-05-14T08:35:17.678Z,20.61
2023-05-14T08:37:41.890Z,20.09
2023-05-14T08:40:08.550Z,19.47
2023-05-14T08:41:18.889Z,19.37
2023-05-14T08:42:28.770Z,19.48
2023-05-14T08:45:23.267Z,19.80
2023-05-14T08:47:50.584Z,20.55
2023-05-14T08:50:38.972Z,20.50
2023-05-14T08:53:10.765Z,20.27
2023-05-14T09:06:14.120Z,19.12
2023-05-14T09:07:24.081Z,19.14
2023-05-14T09:09:51.806Z,19.28
2023-05-14T09:11:00.791Z,19.23
2023-05-14T09:12:16.774Z,19.28
2023-05-14T09:13:28.120Z,19.31
2023-05-14T09:14:35.786Z,19.05
2023-05-14T09:17:01.292Z,19.19
2023-05-14T09:19:27.363Z,19.13
2023-05-14T09:21:56.957Z,19.14
2023-05-14T09:23:05.547Z,19.12
2023-05-14T09:25:41.998Z,19.43
2023-05-14T09:28:10.704Z,19.62
2023-05-14T09:30:37.515Z,19.14
2023-05-14T09:33:03.998Z,19.32
2023-05-14T09:35:33.405Z,19.42
2023-05-14T09:36:42.912Z,19.52
2023-05-14T09:37:53.506Z,19.69
2023-05-14T09:40:21.586Z,19.74
2023-05-14T09:41:31.624Z,19.98
2023-05-14T09:42:41.204Z,19.85
2023-05-14T09:43:52.756Z,19.87
2023-05-14T09:46:16.592Z,19.69
2023-05-14T09:47:26.444Z,19.21
2023-05-14T09:49:52.913Z,19.25
2023-05-14T09:52:20.109Z,19.47
2023-05-14T09:53:31.391Z,19.68
2023-05-14T09:55:57.108Z,19.98
2023-05-14T09:58:21.297Z,20.11
2023-05-14T10:00:47.235Z,20.28
2023-05-14T10:03:17.999Z,20.30
2023-05-14T10:04:27.238Z,20.07
2023-05-14T10:05:38.220Z,20.14
2023-05-14T10:08:15.685Z,20.29
2023-05-14T10:10:42.696Z,20.42
2023-05-14T10:13:15.121Z,20.42
2023-05-14T10:15:52.342Z,20.31
2023-05-14T10:18:21.526Z,20.41
2023-05-14T10:21:06.884Z,20.23
2023-05-14T10:23:37.316Z,20.36
2023-05-14T10:24:47.902Z,20.45
2023-05-14T10:27:14.666Z,20.36
2023-05-14T10:29:41.548Z,20.08
2023-05-14T10:30:50.938Z,20.25
2023-05-14T10:33:23.152Z,20.19
2023-05-14T10:36:06.023Z,20.43
2023-05-14T10:38:37.631Z,20.40
2023-05-14T10:41:21.803Z,20.28
2023-05-14T10:43:53.586Z,20.41
2023-05-14T10:45:07.152Z,20.42
2023-05-14T10:46:17.318Z,20.54
2023-05-14T10:47:31.740Z,20.34
2023-05-14T10:50:03.274Z,20.07
2023-05-14T10:52:28.839Z,20.09
2023-05-14T10:55:03.577Z,20.05
2023-05-14T10:57:31.943Z,20.08
2023-05-14T11:00:00.442Z,20.09
2023-05-14T11:03:56.508Z,20.06
2023-05-14T11:06:30.242Z,19.65
2023-05-14T11:08:59.479Z,19.68
2023-05-14T11:11:29.003Z,19.54
2023-05-14T11:12:40.710Z,19.58
2023-05-14T11:13:52.065Z,20.06
2023-05-14T11:16:24.090Z,19.49
2023-05-14T11:18:56.318Z,19.64
2023-05-14T11:20:07.864Z,19.58
2023-05-14T11:21:17.797Z,19.71
2023-05-14T11:23:46.342Z,19.37
2023-05-14T11:24:55.111Z,19.22
2023-05-14T11:26:06.105Z,19.50
2023-05-14T11:28:31.608Z,19.54
2023-05-14T11:31:01.188Z,19.88
2023-05-14T11:33:28.443Z,20.10
2023-05-14T11:35:53.813Z,19.73
2023-05-14T11:38:21.099Z,19.75
2023-05-14T11:40:55.945Z,19.59
2023-05-14T11:43:42.721Z,19.63
2023-05-14T11:46:12.332Z,19.68
2023-05-14T11:47:23.180Z,19.41
2023-05-14T11:48:33.514Z,18.97
2023-05-14T11:50:58.137Z,18.96
2023-05-14T11:53:30.575Z,19.71
2023-05-14T11:55:57.354Z,20.09
2023-05-14T11:57:21.880Z,20.36
2023-05-14T11:58:35.964Z,20.46
2023-05-14T11:59:45.846Z,21.76
2023-05-14T12:00:56.943Z,21.63
2023-05-14T12:03:25.363Z,21.07
2023-05-14T12:05:57.775Z,20.75
2023-05-14T12:08:37.218Z,22.08
2023-05-14T12:11:06.354Z,21.54
2023-05-14T12:12:19.864Z,21.10
2023-05-14T12:13:33.285Z,21.81
2023-05-14T12:16:01.772Z,21.80
2023-05-14T12:18:36.947Z,21.81
2023-05-14T12:19:48.476Z,22.07
2023-05-14T12:22:23.117Z,22.24
2023-05-14T12:23:33.865Z,22.17
2023-05-14T12:26:14.404Z,21.48
2023-05-14T12:28:43.694Z,21.18
2023-05-14T12:31:18.363Z,21.40
2023-05-14T12:32:28.103Z,21.15
2023-05-14T12:33:37.088Z,21.30
2023-05-14T12:36:19.869Z,20.84
2023-05-14T12:38:32.118Z,20.62
2023-05-14T12:40:55.666Z,20.73
2023-05-14T12:43:21.906Z,20.50
2023-05-14T12:45:54.850Z,19.76
2023-05-14T12:48:20.482Z,19.56
2023-05-14T12:50:45.148Z,19.75
2023-05-14T12:52:07.714Z,19.79
2023-05-14T12:54:21.488Z,19.94
2023-05-14T12:56:45.099Z,20.00
2023-05-14T12:59:10.053Z,19.83
2023-05-14T13:01:36.349Z,19.72
2023-05-14T13:04:01.743Z,19.58
2023-05-14T13:06:27.892Z,19.57
2023-05-14T13:08:51.975Z,19.84
2023-05-14T13:11:17.571Z,19.98
2023-05-14T13:13:42.566Z,20.10
2023-05-14T13:16:08.876Z,20.11
2023-05-14T13:18:34.507Z,19.62
2023-05-14T13:21:00.572Z,19.63
2023-05-14T13:23:24.801Z,19.38
2023-05-14T13:25:50.533Z,19.52
2023-05-14T13:28:15.224Z,19.41
2023-05-14T13:29:25.679Z,19.46
2023-05-14T13:31:51.794Z,19.30
2023-05-14T13:34:17.022Z,19.34
2023-05-14T13:36:46.189Z,19.50
2023-05-14T13:37:55.084Z,19.52
2023-05-14T13:40:36.392Z,19.67
2023-05-14T13:43:07.191Z,19.71
2023-05-14T13:44:16.937Z,19.66
2023-05-14T13:46:41.187Z,19.96
2023-05-14T13:49:06.457Z,19.87
2023-05-14T13:51:30.906Z,20.00
2023-05-14T13:55:04.898Z,20.02
2023-05-14T13:57:29.037Z,19.92
2023-05-14T13:59:52.664Z,19.86
2023-05-14T14:01:01.938Z,19.97
2023-05-14T14:03:33.839Z,20.08
2023-05-14T14:05:58.090Z,20.00
2023-05-14T14:08:24.273Z,19.93
2023-05-14T14:09:35.469Z,19.95
2023-05-14T14:12:03.559Z,19.80
2023-05-14T14:14:27.784Z,19.82
2023-05-14T14:16:54.129Z,19.79
2023-05-14T14:18:04.726Z,20.05
2023-05-14T14:20:30.734Z,20.82
2023-05-14T14:21:42.783Z,20.91
2023-05-14T14:22:52.531Z,20.71
2023-05-14T14:25:18.852Z,21.01
2023-05-14T14:26:28.711Z,21.46
2023-05-14T14:27:40.401Z,21.42
2023-05-14T14:30:07.986Z,21.52
2023-05-14T14:32:32.223Z,21.45
2023-05-14T14:33:42.385Z,21.17
2023-05-14T14:36:08.653Z,21.05
2023-05-14T14:37:18.292Z,21.13
2023-05-14T14:39:42.319Z,21.15
2023-05-14T14:40:51.079Z,21.28
2023-05-14T14:42:02.700Z,21.36
2023-05-14T14:44:46.981Z,21.94
2023-05-14T14:45:56.678Z,21.94
2023-05-14T14:48:35.411Z,21.98
2023-05-14T14:51:03.618Z,22.15
2023-05-14T14:53:28.010Z,22.20
2023-05-14T14:55:52.933Z,22.13
2023-05-14T14:58:18.942Z,22.12
2023-05-14T15:00:44.192Z,22.44
2023-05-14T15:03:11.203Z,22.11
2023-05-14T15:05:35.450Z,21.36
2023-05-14T15:07:59.229Z,21.67
2023-05-14T15:10:26.534Z,21.62
2023-05-14T15:12:51.179Z,21.72
2023-05-14T15:15:22.710Z,21.69
2023-05-14T15:16:33.577Z,21.83
2023-05-14T15:17:42.955Z,22.17
2023-05-14T15:20:08.522Z,21.79
2023-05-14T15:22:32.174Z,22.91
2023-05-14T15:24:56.532Z,23.38
2023-05-14T15:27:20.399Z,23.82
2023-05-14T15:29:47.750Z,24.01
2023-05-14T15:32:12.518Z,23.92
2023-05-14T15:34:36.525Z,24.01
2023-05-14T15:35:46.120Z,24.04
2023-05-14T15:38:10.726Z,24.18
2023-05-14T15:40:34.761Z,24.25
2023-05-14T15:41:46.508Z,24.25
2023-05-14T15:42:55.596Z,24.18
2023-05-14T15:44:06.368Z,24.17
2023-05-14T15:46:51.464Z,24.01
2023-05-14T15:49:15.245Z,23.95
2023-05-14T15:50:26.785Z,24.00
2023-05-14T15:51:36.612Z,23.99
2023-05-14T15:52:46.288Z,23.87
2023-05-14T15:53:55.869Z,23.87
2023-05-14T15:56:24.102Z,23.95
2023-05-14T15:58:49.404Z,23.93
2023-05-14T16:01:13.059Z,23.93
2023-05-14T16:03:38.977Z,24.27
2023-05-14T16:06:05.842Z,24.31
2023-05-14T16:08:32.200Z,24.36
2023-05-14T16:10:57.183Z,24.36
2023-05-14T16:13:23.565Z,24.15
2023-05-14T16:15:51.248Z,23.84
2023-05-14T16:17:02.626Z,23.97
2023-05-14T16:19:28.008Z,23.70
2023-05-14T16:21:54.294Z,23.54
2023-05-14T16:23:02.950Z,23.72
2023-05-14T16:25:30.928Z,23.88
2023-05-14T16:26:42.658Z,23.87
2023-05-14T16:29:06.338Z,23.88
2023-05-14T16:31:31.903Z,23.97
2023-05-14T16:33:58.240Z,24.06
2023-05-14T16:35:09.569Z,24.00
2023-05-14T16:37:35.164Z,24.25
2023-05-14T16:40:00.104Z,24.40
2023-05-14T16:42:48.568Z,24.51
2023-05-14T16:45:13.421Z,24.71
2023-05-14T16:47:38.616Z,24.70
2023-05-14T16:50:05.371Z,24.67
2023-05-14T16:52:31.001Z,24.55
2023-05-14T16:54:54.458Z,24.47
2023-05-14T16:58:29.265Z,24.51
2023-05-14T16:59:38.826Z,24.54
2023-05-14T17:02:04.687Z,24.56
2023-05-14T17:04:28.976Z,24.67
2023-05-14T17:05:38.765Z,24.56
2023-05-14T17:08:05.297Z,24.62
2023-05-14T17:09:16.478Z,24.58
2023-05-14T17:11:42.952Z,24.76
2023-05-14T17:12:52.082Z,24.93
2023-05-14T17:15:23.961Z,24.98
2023-05-14T17:17:48.710Z,24.77
2023-05-14T17:20:14.161Z,24.51
2023-05-14T17:21:24.475Z,24.72
2023-05-14T17:23:49.456Z,24.63
2023-05-14T17:26:12.922Z,24.53
2023-05-14T17:28:37.540Z,24.43
2023-05-14T17:31:23.112Z,24.40
2023-05-14T17:33:49.208Z,24.29
2023-05-14T17:36:34.760Z,24.03
2023-05-14T17:37:43.651Z,24.17
2023-05-14T17:40:09.105Z,23.85
2023-05-14T17:41:18.740Z,23.79
2023-05-14T17:42:27.445Z,23.79
2023-05-14T17:44:50.999Z,23.86
2023-05-14T17:47:15.726Z,23.92
2023-05-14T17:49:39.961Z,23.91
2023-05-14T17:52:05.177Z,23.86
2023-05-14T17:53:16.423Z,23.86
2023-05-14T17:55:42.225Z,23.89
2023-05-14T17:56:51.310Z,23.98
2023-05-14T17:59:15.769Z,24.05
2023-05-14T18:01:41.328Z,24.08
2023-05-14T18:04:06.450Z,24.03
2023-05-14T18:06:32.193Z,24.16
2023-05-14T18:41:27.738Z,24.45
2023-05-14T18:43:51.556Z,24.39
2023-05-14T18:46:15.867Z,24.53
2023-05-14T18:48:44.349Z,24.42
2023-05-14T18:51:17.243Z,24.69
2023-05-14T18:53:44.775Z,24.52
2023-05-14T18:56:11.643Z,24.53
2023-05-14T18:58:37.260Z,24.63
2023-05-14T18:59:46.892Z,24.66
2023-05-14T19:02:13.213Z,24.67
2023-05-14T19:03:23.599Z,24.67
2023-05-14T19:05:52.465Z,24.92
2023-05-14T19:08:16.436Z,25.11
2023-05-14T19:09:26.973Z,25.08
2023-05-14T19:11:51.067Z,25.25
2023-05-14T19:14:15.217Z,25.47
2023-05-14T19:16:41.005Z,25.49
2023-05-14T19:19:05.030Z,25.52
2023-05-14T19:21:30.178Z,25.61
2023-05-14T19:23:53.792Z,25.81
2023-05-14T19:25:03.234Z,26.13
2023-05-14T19:27:29.967Z,26.31
2023-05-14T19:28:39.060Z,26.45
2023-05-14T19:31:05.414Z,26.88
2023-05-14T19:32:15.162Z,26.91
2023-05-14T19:33:26.307Z,26.97
2023-05-14T19:35:52.959Z,27.27
2023-05-14T19:37:02.912Z,27.09
2023-05-14T19:39:28.386Z,27.55
2023-05-14T19:42:00.841Z,27.87
2023-05-14T19:44:26.326Z,28.33
2023-05-14T19:46:53.892Z,28.56
2023-05-14T19:48:02.910Z,28.16
2023-05-14T19:50:27.625Z,28.13
2023-05-14T19:51:37.393Z,28.25
2023-05-14T19:54:01.530Z,28.36
2023-05-14T19:56:27.132Z,28.26
2023-05-14T19:58:53.367Z,28.14
2023-05-14T20:01:18.829Z,28.34
2023-05-14T20:03:45.832Z,28.47
2023-05-14T20:04:56.613Z,28.54
2023-05-14T20:07:22.053Z,28.90
2023-05-14T20:08:31.112Z,28.88
2023-05-14T20:09:40.066Z,29.37
2023-05-14T20:12:04.464Z,29.60
2023-05-14T20:14:28.900Z,30.03
2023-05-14T20:16:53.699Z,30.40
2023-05-14T20:19:20.449Z,29.46
2023-05-14T20:21:45.104Z,28.25
2023-05-14T20:22:54.164Z,28.13
2023-05-14T20:24:03.290Z,28.41
2023-05-14T20:26:27.121Z,28.53
2023-05-14T20:28:53.254Z,28.24
2023-05-14T20:31:20.993Z,29.32
2023-05-14T20:33:44.889Z,29.56
2023-05-14T20:34:55.886Z,29.95
2023-05-14T20:37:21.088Z,30.50
2023-05-14T20:39:46.861Z,30.82
2023-05-14T20:42:12.587Z,31.17
2023-05-14T20:44:36.557Z,31.53
2023-05-14T20:47:00.607Z,31.88
2023-05-14T20:49:26.813Z,32.27
2023-05-14T20:51:51.352Z,32.57
2023-05-14T20:54:16.870Z,32.85
2023-05-14T20:56:41.301Z,33.06
2023-05-14T20:57:50.599Z,33.05
2023-05-14T20:58:59.715Z,33.20
2023-05-14T21:00:10.504Z,33.34
2023-05-14T21:02:36.739Z,33.71
2023-05-14T21:05:00.748Z,33.57
2023-05-14T21:08:39.870Z,33.92
2023-05-14T21:11:06.530Z,34.25
2023-05-14T21:13:31.036Z,34.08
2023-05-14T21:15:55.439Z,34.30
2023-05-14T21:18:20.320Z,34.57
2023-05-14T21:20:51.249Z,34.67
2023-05-14T21:22:00.796Z,34.60
2023-05-14T21:24:24.826Z,33.99
2023-05-14T21:26:53.445Z,34.34
2023-05-14T21:29:17.638Z,33.97
2023-05-14T21:30:26.740Z,34.18
2023-05-14T21:32:50.300Z,34.31
2023-05-14T21:33:59.534Z,33.99
2023-05-14T21:36:25.239Z,33.46
2023-05-14T21:37:35.073Z,33.96
2023-05-14T21:40:00.030Z,34.23
2023-05-14T21:42:23.735Z,34.09
2023-05-14T21:44:48.876Z,33.59
2023-05-14T21:47:12.738Z,33.65
2023-05-14T21:49:38.193Z,33.56
2023-05-14T21:52:03.206Z,34.88
2023-05-14T21:54:27.908Z,34.97
2023-05-14T21:56:53.932Z,35.30
2023-05-14T21:58:03.430Z,35.43
2023-05-14T22:00:28.791Z,35.35
2023-05-14T22:02:00.771Z,34.71
2023-05-14T22:04:06.585Z,32.49
2023-05-14T22:05:15.774Z,32.02
2023-05-14T22:06:25.736Z,32.26
2023-05-14T22:08:50.728Z,31.97
2023-05-14T22:11:15.735Z,30.69
2023-05-14T22:13:40.618Z,30.56
2023-05-14T22:14:49.643Z,30.56
2023-05-14T22:17:14.422Z,31.90
2023-05-14T22:19:39.799Z,32.36
2023-05-14T22:22:05.475Z,31.15
2023-05-14T22:23:14.652Z,32.10
2023-05-14T22:25:39.429Z,33.14
2023-05-14T22:28:03.671Z,33.89
2023-05-14T22:30:28.717Z,34.95
2023-05-14T22:32:53.779Z,35.39
2023-05-14T22:35:20.253Z,35.47
2023-05-14T22:37:45.656Z,35.80
2023-05-14T22:40:13.207Z,36.01
2023-05-14T22:41:23.080Z,36.11
2023-05-14T22:43:48.742Z,36.48
2023-05-14T22:44:57.124Z,36.62
2023-05-14T22:47:22.097Z,37.20
2023-05-14T22:48:30.663Z,37.29
2023-05-14T22:51:00.425Z,37.92
2023-05-14T22:53:26.537Z,38.33
2023-05-14T22:55:52.030Z,38.43
2023-05-14T22:57:01.352Z,38.63
2023-05-14T22:58:11.842Z,38.74
2023-05-14T23:00:37.637Z,38.82
2023-05-14T23:40:22.667Z,40.79
2023-05-14T23:42:40.985Z,40.80
2023-05-14T23:45:06.693Z,40.96
2023-05-14T23:46:17.026Z,41.10
2023-05-14T23:48:43.920Z,41.39
2023-05-14T23:51:10.003Z,41.42
2023-05-14T23:53:34.643Z,41.31
2023-05-14T23:55:59.298Z,41.00
2023-05-14T23:58:23.301Z,41.01
